Terminal Aerodrome Forecast
Issued by NWS Shreveport, LA

Home | Current Version | Previous Version | Text Only | Print | Product List | Glossary On
Versions: 1 2 3 4 5 6 7 8 9 10 11 12 13 14 15 16 17 18 19 20 21
000
FTUS44 KSHV 201604 AAB
TAFELD
TAF AMD
KELD 201604Z 2016/2112 14006KT P6SM SCT020 OVC040
      TEMPO 2016/2020 5SM -SHRA BR OVC015
     FM202000 18010KT 5SM TSRA BR OVC025CB
     FM210600 32005KT 6SM -SHRA BR OVC010=

USA.gov is the U.S. government's official web portal to all federal, state and local government web resources and services.